map of KTTA home
KTTA - Airport
Location
City:  Sanford, North Carolina, United States
Name:Raleigh Exec Jetport Airport at Sanford-Lee County
ICAO:KTTA
FAA LID:TTA

Details
Type:Airport (Airfield)
Use:Public/Civil
Latitude:3534'57"N (35.582444)
Longitude:7906'05"W (-79.101332)
Datum:WGS 1984
Elevation:246 ft (75 m)
Variation:8.97W (WMM2015 magnetic declination)
-0.04 annual change
Runways:1
Longest:6500 × 100 ft (1981 × 30.5 m), paved

Time
Time Zone:UTC-5 (DST-4)
Local Time:

Weather
METAR:KTTA 160310Z AUTO 00000KT 3SM BR CLR 19/19 A3012 RMK AO2 T01860186

Related Locations
Nearby:
Farthest:YAUG: 11631 mi / 18718 km
Augusta [Augusta Airport], WA, AU

Find:

   beyond  
but within

Other Information
Maps:
NOTAMs:
Links:
Sources:

  
  • flag of United States
  • flag of North Carolina
  

Sectional Chart

Flight Planning
at skyvector.com

Satellite Image

Google Maps Satellite view

 

Copyright © 2004-2018 Karl L. Swartz. All rights reserved.
The Great Circle Mapper name and logo are trademarks of the Great Circle Mapper.
All other trademarks mentioned herein belong to their respective owners.
Please see credits for attibutions and further copyright information.

  Follow gcmap on Facebook Follow gcmap on Twitter Follow gcmap on Google+ GCmap on LinkedIn

hCard Microformat

Geo Microformat